Hawaii Aviation Weather

Weather Information Updated from 1800wxbrief.com

Please note, all weather information provided should be validated for accuracy before flying. Click on each Blue link for more information.

REAL TIME LOCAL RADAR – Base Reflectivity (10min)

General Forecasts (Prog Charts)
Hawaii Lo-Level Sig Progs

Thunderstorm & Severe Weather Forecast
Hawaii Severe Weather Outlook

General Forecasts (Prog Charts)
NE Pacific Surface Analysis

General Forecasts (Prog Charts)
Hawaii Surface Forecast

Aviation Weather from NOAA

PHNL – Honolulu

Available data for PHNL from the past 2 hours
HONOLULU, HI
Metar
PHNL 250453Z 06014KT 10SM FEW025 SCT038 SCT055 29/20 A2995 RMK AO2 SLP142 T02890200

04:53 UTC

Wind: 60° 14kt

Visibility: 10 SM

Sky: FEW 2500 ft

Temp: 29 deg C / 84.2 deg F

Dewpoint: 20 deg C / 68 deg F

Pressure: 29.95 inHg

TAF
PHNL 250245Z 2503/2606 07014KT P6SM FEW025 SCT040 SCT050 FM250700 06009KT P6SM FEW025 SCT045 FM252100 06015G22KT P6SM FEW025 SCT045 FM260500 05011KT P6SM FEW025 SCT045

PHJR – Kalealoa (Rogers)

Available data for PHJR from the past 2 hours
KALAELOA, HI
Metar
PHJR 250453Z 07006KT 10SM BKN055 28/21 A2996 RMK AO2 SLP151 T02830206

04:53 UTC

Wind: 70° 6kt

Visibility: 10 SM

Sky: BKN 5500 ft

Temp: 28 deg C / 82.4 deg F

Dewpoint: 21 deg C / 69.8 deg F

Pressure: 29.96 inHg

TAF
PHJR 242324Z 2500/2524 09010G17KT P6SM FEW040 BKN050 FM250600 06005KT P6SM SCT045 FM252000 07010G17KT P6SM FEW035 SCT045

PHNG – Kaneohe

Available data for PHNG from the past 2 hours
KANEOHE MCAS, HI
Metar
PHNG 250457Z 07012KT 10SM SCT025 28/22 A2995 RMK AO2 SLP136 T02780222 $

04:57 UTC

Wind: 70° 12kt

Visibility: 10 SM

Sky: SCT 2500 ft

Temp: 28 deg C / 82.4 deg F

Dewpoint: 22 deg C / 71.6 deg F

Pressure: 29.95 inHg

TAF
TAF PHNG 2503/2603 08010KT 9999 FEW025 BKN045 QNH2991INS TEMPO 2503/2509 08010G21KT 8000 -SHRA BKN025 TEMPO 2512/2517 8000 -SHRA BKN025 T26/2513Z T30/2523Z

PHHI – Wheeler

Available data for PHHI from the past 2 hours
WHEELER AFB/OAHU, HI
Metar
PHHI 250456Z AUTO 11007KT 10SM OVC033 26/20 A2998 RMK AO2 SLP141 T02630204 $

04:56 UTC

Wind: 110° 7kt

Visibility: 10 SM

Sky: OVC 3300 ft

Temp: 26 deg C / 78.8 deg F

Dewpoint: 20 deg C / 68 deg F

Pressure: 29.98 inHg

TAF
TAF PHHI 240700Z 2407/2513 VRB06KT 9999 SCT015 BKN020 QNH2990INS BECMG 2420/2421 09010G15KT 9999 SCT030 QNH2994INS BECMG 2507/2508 VRB06KT 9999 BKN020 QNH2991INS TX31/2501Z TN22/2414Z LAST NO AMDS AFT 2409 NEXT 2615
Honolulu 3 Day Forecast (Wind, Temp, etc)
HAWAII INFRARED Satellite
HAWAII Visible Satellite
HAWAII National Weather Service Forecast